createdAt,value
2019-04-03T00:00:34.500Z,23.20
2019-04-03T00:03:04.057Z,19.63
2019-04-03T00:05:30.617Z,25.13
2019-04-03T00:07:57.458Z,17.13
2019-04-03T00:10:24.410Z,20.90
2019-04-03T00:12:52.101Z,24.97
2019-04-03T00:15:18.905Z,22.77
2019-04-03T00:17:46.246Z,13.87
2019-04-03T00:20:13.655Z,18.77
2019-04-03T00:22:40.442Z,22.13
2019-04-03T00:25:07.575Z,24.03
2019-04-03T00:27:34.588Z,17.67
2019-04-03T00:30:01.491Z,18.77
2019-04-03T00:32:28.429Z,18.83
2019-04-03T00:34:55.342Z,20.30
2019-04-03T00:37:23.245Z,18.50
2019-04-03T00:39:50.653Z,19.93
2019-04-03T00:42:17.701Z,14.73
2019-04-03T00:44:44.657Z,22.20
2019-04-03T00:47:11.514Z,21.37
2019-04-03T00:49:38.466Z,19.60
2019-04-03T00:52:05.262Z,14.57
2019-04-03T00:54:32.134Z,17.33
2019-04-03T00:56:59.679Z,16.37
2019-04-03T00:59:26.897Z,16.53
2019-04-03T01:01:54.759Z,24.67
2019-04-03T01:04:22.816Z,13.07
2019-04-03T01:06:49.601Z,17.13
2019-04-03T01:09:16.551Z,21.03
2019-04-03T01:11:43.437Z,11.77
2019-04-03T01:14:10.534Z,20.33
2019-04-03T01:16:37.392Z,17.13
2019-04-03T01:19:05.798Z,13.97
2019-04-03T01:21:33.307Z,17.67
2019-04-03T01:24:00.167Z,13.80
2019-04-03T01:26:27.165Z,15.00
2019-04-03T01:28:54.249Z,14.27
2019-04-03T01:31:21.123Z,16.50
2019-04-03T01:33:47.934Z,16.97
2019-04-03T01:36:17.135Z,22.40
2019-04-03T01:38:43.459Z,15.77
2019-04-03T01:41:10.254Z,15.13
2019-04-03T01:43:37.478Z,17.87
2019-04-03T01:46:04.353Z,16.63
2019-04-03T01:48:31.289Z,14.73
2019-04-03T01:50:59.551Z,18.77
2019-04-03T01:53:27.106Z,14.67
2019-04-03T01:55:53.962Z,11.87
2019-04-03T01:58:20.830Z,17.03
2019-04-03T02:00:47.894Z,10.87
2019-04-03T02:03:14.788Z,13.47
2019-04-03T02:05:43.478Z,16.07
2019-04-03T02:08:10.693Z,12.07
2019-04-03T02:10:37.838Z,17.90
2019-04-03T02:13:04.868Z,12.40
2019-04-03T02:15:31.909Z,13.17
2019-04-03T02:17:58.822Z,13.93
2019-04-03T02:20:26.764Z,13.87
2019-04-03T02:22:54.344Z,16.83
2019-04-03T02:25:21.274Z,13.00
2019-04-03T02:27:48.071Z,12.17
2019-04-03T02:30:15.402Z,16.03
2019-04-03T02:32:42.205Z,23.50
2019-04-03T02:35:09.336Z,17.37
2019-04-03T02:37:36.202Z,16.47
2019-04-03T02:40:04.297Z,17.80
2019-04-03T02:42:31.306Z,16.00
2019-04-03T02:44:58.320Z,12.03
2019-04-03T02:47:25.453Z,15.10
2019-04-03T02:49:52.426Z,14.30
2019-04-03T02:52:19.837Z,13.87
2019-04-03T02:54:47.031Z,15.20
2019-04-03T02:57:16.278Z,15.40
2019-04-03T02:59:42.698Z,12.77
2019-04-03T03:02:12.567Z,15.83
2019-04-03T03:04:38.499Z,15.20
2019-04-03T03:07:05.624Z,11.87
2019-04-03T03:09:32.947Z,13.90
2019-04-03T03:12:00.555Z,12.07
2019-04-03T03:14:28.207Z,17.13
2019-04-03T03:16:57.051Z,14.50
2019-04-03T03:19:24.339Z,9.43
2019-04-03T03:21:55.420Z,13.23
2019-04-03T03:24:22.718Z,11.60
2019-04-03T03:26:50.255Z,12.40
2019-04-03T03:29:23.832Z,15.93
2019-04-03T03:32:06.127Z,12.63
2019-04-03T03:34:43.549Z,20.40
2019-04-03T03:36:47.165Z,11.53
2019-04-03T03:39:14.836Z,15.20
2019-04-03T03:41:42.887Z,14.23
2019-04-03T03:44:11.282Z,16.60
2019-04-03T03:46:39.950Z,16.37
2019-04-03T03:49:07.137Z,14.10
2019-04-03T03:51:34.335Z,16.57
2019-04-03T03:54:02.360Z,10.97
2019-04-03T03:56:31.285Z,13.07
2019-04-03T03:58:58.939Z,11.33
2019-04-03T04:01:26.370Z,11.37
2019-04-03T04:03:55.152Z,13.87
2019-04-03T04:06:22.411Z,13.50
2019-04-03T04:08:49.893Z,17.73
2019-04-03T04:11:18.003Z,13.13
2019-04-03T04:13:47.544Z,13.10
2019-04-03T04:16:14.059Z,15.53
2019-04-03T04:18:41.052Z,13.87
2019-04-03T04:21:10.613Z,15.33
2019-04-03T04:23:36.998Z,16.83
2019-04-03T04:26:04.006Z,17.67
2019-04-03T04:28:31.277Z,13.77
2019-04-03T04:30:58.488Z,15.50
2019-04-03T04:33:25.292Z,15.50
2019-04-03T04:35:52.948Z,16.67
2019-04-03T04:38:20.473Z,13.47
2019-04-03T04:40:47.638Z,13.70
2019-04-03T04:43:14.598Z,14.40
2019-04-03T04:45:42.728Z,18.73
2019-04-03T04:48:10.209Z,16.37
2019-04-03T04:50:37.182Z,14.13
2019-04-03T04:53:04.165Z,16.30
2019-04-03T04:55:31.531Z,22.67
2019-04-03T04:57:59.721Z,14.17
2019-04-03T05:00:29.360Z,17.17
2019-04-03T05:02:55.571Z,15.53
2019-04-03T05:05:22.617Z,18.77
2019-04-03T05:07:49.409Z,17.33
2019-04-03T05:10:17.973Z,20.60
2019-04-03T05:12:45.694Z,14.30
2019-04-03T05:15:13.250Z,16.60
2019-04-03T05:17:40.246Z,17.77
2019-04-03T05:20:07.494Z,15.27
2019-04-03T05:22:34.394Z,12.80
2019-04-03T05:25:01.463Z,20.33
2019-04-03T05:27:28.429Z,17.97
2019-04-03T05:29:55.459Z,18.57
2019-04-03T05:32:22.350Z,16.67
2019-04-03T05:34:49.219Z,14.40
2019-04-03T05:37:18.030Z,16.20
2019-04-03T05:39:45.441Z,16.77
2019-04-03T05:42:12.472Z,21.83
2019-04-03T05:44:39.775Z,15.50
2019-04-03T05:47:07.855Z,19.67
2019-04-03T05:49:35.647Z,16.67
2019-04-03T05:52:04.158Z,17.70
2019-04-03T05:54:31.385Z,23.30
2019-04-03T05:56:58.458Z,25.73
2019-04-03T05:59:25.268Z,17.67
2019-04-03T06:01:52.193Z,17.67
2019-04-03T06:04:19.520Z,13.73
2019-04-03T06:06:47.238Z,17.70
2019-04-03T06:09:14.641Z,15.17
2019-04-03T06:11:41.755Z,19.70
2019-04-03T06:14:09.120Z,16.67
2019-04-03T06:16:36.166Z,15.43
2019-04-03T06:19:06.145Z,12.50
2019-04-03T06:21:31.954Z,15.37
2019-04-03T06:23:58.758Z,16.03
2019-04-03T06:26:25.694Z,20.03
2019-04-03T06:28:52.899Z,17.13
2019-04-03T06:31:19.994Z,18.20
2019-04-03T06:33:47.171Z,17.83
2019-04-03T06:36:16.946Z,12.23
2019-04-03T06:38:43.066Z,20.07
2019-04-03T06:41:10.432Z,15.97
2019-04-03T06:43:37.295Z,16.23
2019-04-03T06:46:04.252Z,14.33
2019-04-03T06:48:31.078Z,16.73
2019-04-03T06:50:58.221Z,16.43
2019-04-03T06:53:27.798Z,19.33
2019-04-03T06:55:53.963Z,19.20
2019-04-03T06:58:20.759Z,17.00
2019-04-03T07:00:47.706Z,19.97
2019-04-03T07:03:14.698Z,20.90
2019-04-03T07:05:42.107Z,20.60
2019-04-03T07:08:09.379Z,18.50
2019-04-03T07:10:36.932Z,19.47
2019-04-03T07:13:04.017Z,18.80
2019-04-03T07:15:30.813Z,15.50
2019-04-03T07:18:00.626Z,16.73
2019-04-03T07:20:26.456Z,18.47
2019-04-03T07:22:53.272Z,14.43
2019-04-03T07:25:20.297Z,18.37
2019-04-03T07:27:47.360Z,22.40
2019-04-03T07:30:16.979Z,13.70
2019-04-03T07:32:43.673Z,17.83
2019-04-03T07:35:11.153Z,16.97
2019-04-03T07:37:37.973Z,18.20
2019-04-03T07:40:06.407Z,18.43
2019-04-03T07:42:33.474Z,15.93
2019-04-03T07:45:02.131Z,22.27
2019-04-03T07:47:29.319Z,17.87
2019-04-03T07:49:56.448Z,20.17
2019-04-03T07:52:23.691Z,17.90
2019-04-03T07:54:52.866Z,22.93
2019-04-03T07:57:19.538Z,18.70
2019-04-03T07:59:46.446Z,18.73
2019-04-03T08:02:13.389Z,19.50
2019-04-03T08:04:40.254Z,17.27
2019-04-03T08:07:07.117Z,17.47
2019-04-03T08:09:33.967Z,17.97
2019-04-03T08:12:03.457Z,20.03
2019-04-03T08:14:29.692Z,21.63
2019-04-03T08:16:57.244Z,20.60
2019-04-03T08:19:24.326Z,19.47
2019-04-03T08:21:51.390Z,16.67
2019-04-03T08:24:18.597Z,20.57
2019-04-03T08:26:45.537Z,16.87
2019-04-03T08:29:12.326Z,20.43
2019-04-03T08:31:42.322Z,20.37
2019-04-03T08:34:16.011Z,26.07
2019-04-03T08:36:38.378Z,18.27
2019-04-03T08:39:06.809Z,16.10
2019-04-03T08:41:36.695Z,17.03
2019-04-03T08:44:05.876Z,18.60
2019-04-03T08:46:31.808Z,18.83
2019-04-03T08:48:58.766Z,17.37
2019-04-03T08:51:25.786Z,19.03
2019-04-03T08:53:54.759Z,20.00
2019-04-03T08:56:21.522Z,21.50
2019-04-03T08:58:48.398Z,16.70
2019-04-03T09:01:15.242Z,18.67
2019-04-03T09:03:42.215Z,15.20
2019-04-03T09:06:09.311Z,16.70
2019-04-03T09:08:36.170Z,21.53
2019-04-03T09:11:05.112Z,15.57
2019-04-03T09:13:31.865Z,23.07
2019-04-03T09:16:00.037Z,20.70
2019-04-03T09:18:29.910Z,25.00
2019-04-03T09:20:56.243Z,19.60
2019-04-03T09:23:25.111Z,19.80
2019-04-03T09:25:51.978Z,18.33
2019-04-03T09:28:18.877Z,22.23
2019-04-03T09:30:47.950Z,19.07
2019-04-03T09:33:14.844Z,20.33
2019-04-03T09:35:43.032Z,24.73
2019-04-03T09:38:10.973Z,21.13
2019-04-03T09:40:38.327Z,20.00
2019-04-03T09:43:05.385Z,21.57
2019-04-03T09:45:32.314Z,20.60
2019-04-03T09:47:59.267Z,24.00
2019-04-03T09:50:26.239Z,22.27
2019-04-03T09:52:54.792Z,22.50
2019-04-03T09:55:22.198Z,25.33
2019-04-03T09:57:49.090Z,21.17
2019-04-03T10:00:16.638Z,20.97
2019-04-03T10:02:43.546Z,21.37
2019-04-03T10:05:10.586Z,19.77
2019-04-03T10:07:37.587Z,20.43
2019-04-03T10:10:05.479Z,19.50
2019-04-03T10:12:32.683Z,20.30
2019-04-03T10:15:00.170Z,20.87
2019-04-03T10:17:27.242Z,21.33
2019-04-03T10:19:54.452Z,21.97
2019-04-03T10:22:23.751Z,22.53
2019-04-03T10:24:50.181Z,22.47
2019-04-03T10:27:17.197Z,22.03
2019-04-03T10:29:44.044Z,24.23
2019-04-03T10:32:11.254Z,21.07
2019-04-03T10:34:38.241Z,21.27
2019-04-03T10:37:05.371Z,21.70
2019-04-03T10:39:32.289Z,24.07
2019-04-03T10:42:00.485Z,24.03
2019-04-03T10:44:28.014Z,22.43
2019-04-03T10:46:54.813Z,20.23
2019-04-03T10:49:21.677Z,18.57
2019-04-03T10:51:48.566Z,19.37
2019-04-03T10:54:15.576Z,20.80
2019-04-03T10:56:42.472Z,26.23
2019-04-03T10:59:13.026Z,21.03
2019-04-03T11:01:38.385Z,20.23
2019-04-03T11:04:05.474Z,21.23
2019-04-03T11:06:32.463Z,22.23
2019-04-03T11:08:59.481Z,18.20
2019-04-03T11:11:28.720Z,19.57
2019-04-03T11:13:55.504Z,19.67
2019-04-03T11:16:22.551Z,23.10
2019-04-03T11:18:58.525Z,22.50
2019-04-03T11:21:18.185Z,24.63
2019-04-03T11:23:45.864Z,25.17
2019-04-03T11:26:13.005Z,24.57
2019-04-03T11:28:40.229Z,20.47
2019-04-03T11:31:07.318Z,19.80
2019-04-03T11:33:34.132Z,25.27
2019-04-03T11:36:01.262Z,26.13
2019-04-03T11:38:29.322Z,21.17
2019-04-03T11:40:57.008Z,19.33
2019-04-03T11:43:24.338Z,25.17
2019-04-03T11:45:51.314Z,19.67
2019-04-03T11:48:18.111Z,24.33
2019-04-03T11:50:45.307Z,23.13
2019-04-03T11:53:12.689Z,25.27
2019-04-03T11:55:41.326Z,24.57
2019-04-03T11:58:08.418Z,20.47
2019-04-03T12:00:40.479Z,19.87
2019-04-03T12:03:07.282Z,23.70
2019-04-03T12:05:34.110Z,28.87
2019-04-03T12:08:00.965Z,24.37
2019-04-03T12:10:27.882Z,21.10
2019-04-03T12:12:54.930Z,21.17
2019-04-03T12:15:22.412Z,21.80
2019-04-03T12:17:49.745Z,21.40
2019-04-03T12:20:17.303Z,21.77
2019-04-03T12:22:44.349Z,21.93
2019-04-03T12:25:11.546Z,20.50
2019-04-03T12:27:38.867Z,22.97
2019-04-03T12:30:07.213Z,26.73
2019-04-03T12:32:39.643Z,22.73
2019-04-03T12:35:03.834Z,19.97
2019-04-03T12:37:30.730Z,21.30
2019-04-03T12:39:58.227Z,18.77
2019-04-03T12:42:26.627Z,23.00
2019-04-03T12:44:54.394Z,20.00
2019-04-03T12:47:22.174Z,21.63
2019-04-03T12:49:49.095Z,23.80
2019-04-03T12:52:15.905Z,23.33
2019-04-03T12:54:42.802Z,22.87
2019-04-03T12:57:09.900Z,22.93
2019-04-03T12:59:37.994Z,17.47
2019-04-03T13:02:05.653Z,20.53
2019-04-03T13:04:32.946Z,23.60
2019-04-03T13:07:00.007Z,20.30
2019-04-03T13:09:26.909Z,22.23
2019-04-03T13:11:53.974Z,21.07
2019-04-03T13:14:25.246Z,23.10
2019-04-03T13:16:49.662Z,23.33
2019-04-03T13:19:16.762Z,25.67
2019-04-03T13:21:43.828Z,22.40
2019-04-03T13:24:11.940Z,23.43
2019-04-03T13:26:39.447Z,20.47
2019-04-03T13:29:08.675Z,22.63
2019-04-03T13:31:35.200Z,26.03
2019-04-03T13:34:02.305Z,22.00
2019-04-03T13:36:29.282Z,22.17
2019-04-03T13:38:56.070Z,22.67
2019-04-03T13:41:22.941Z,22.23
2019-04-03T13:43:50.999Z,24.13
2019-04-03T13:46:18.781Z,21.07
2019-04-03T13:48:46.224Z,21.90
2019-04-03T13:51:13.383Z,22.93
2019-04-03T13:53:40.379Z,23.20
2019-04-03T13:56:10.252Z,22.13
2019-04-03T13:58:36.102Z,19.50
2019-04-03T14:01:07.801Z,21.17
2019-04-03T14:03:32.189Z,25.17
2019-04-03T14:05:59.114Z,17.40
2019-04-03T14:08:26.670Z,22.37
2019-04-03T14:10:54.009Z,22.50
2019-04-03T14:13:20.814Z,22.37
2019-04-03T14:15:48.150Z,23.00
2019-04-03T14:18:15.389Z,21.63
2019-04-03T14:20:42.424Z,24.13
2019-04-03T14:23:09.400Z,18.30
2019-04-03T14:25:38.448Z,18.47
2019-04-03T14:28:05.818Z,22.73
2019-04-03T14:30:32.861Z,19.30
2019-04-03T14:32:59.913Z,18.47
2019-04-03T14:35:48.090Z,20.03
2019-04-03T14:37:58.311Z,21.57
2019-04-03T14:40:24.647Z,20.67
2019-04-03T14:42:51.813Z,20.50
2019-04-03T14:45:19.162Z,20.83
2019-04-03T14:47:46.387Z,19.80
2019-04-03T14:50:13.876Z,22.80
2019-04-03T14:52:40.960Z,25.53
2019-04-03T14:55:18.639Z,24.23
2019-04-03T14:57:37.094Z,17.93
2019-04-03T15:00:22.042Z,21.70
2019-04-03T15:02:33.639Z,23.77
2019-04-03T15:05:00.554Z,20.63
2019-04-03T15:07:27.671Z,22.87
2019-04-03T15:09:54.741Z,24.50
2019-04-03T15:12:21.545Z,19.80
2019-04-03T15:14:48.373Z,21.17
2019-04-03T15:17:15.218Z,20.20
2019-04-03T15:19:43.104Z,30.30
2019-04-03T15:22:11.113Z,21.63
2019-04-03T15:24:38.257Z,20.37
2019-04-03T15:27:05.622Z,27.27
2019-04-03T15:29:32.901Z,20.63
2019-04-03T15:32:00.026Z,25.07
2019-04-03T15:34:28.521Z,21.30
2019-04-03T15:36:55.500Z,25.17
2019-04-03T15:39:22.740Z,24.43
2019-04-03T15:41:49.950Z,22.47
2019-04-03T15:44:19.965Z,26.60
2019-04-03T15:46:45.744Z,20.60
2019-04-03T15:49:13.203Z,25.30
2019-04-03T15:51:40.507Z,25.43
2019-04-03T15:54:07.474Z,24.33
2019-04-03T15:56:34.444Z,20.70
2019-04-03T15:59:01.293Z,22.37
2019-04-03T16:01:28.780Z,22.77
2019-04-03T16:03:57.546Z,19.33
2019-04-03T16:06:24.627Z,22.60
2019-04-03T16:08:51.469Z,23.97
2019-04-03T16:11:18.362Z,24.93
2019-04-03T16:13:47.114Z,22.90
2019-04-03T16:16:14.262Z,23.27
2019-04-03T16:18:41.154Z,23.80
2019-04-03T16:21:08.472Z,23.40
2019-04-03T16:23:36.828Z,23.87
2019-04-03T16:26:04.461Z,22.40
2019-04-03T16:28:33.387Z,21.37
2019-04-03T16:31:01.294Z,23.37
2019-04-03T16:33:28.242Z,20.93
2019-04-03T16:35:55.138Z,25.43
2019-04-03T16:38:21.983Z,19.50
2019-04-03T16:40:48.897Z,20.50
2019-04-03T16:43:15.997Z,21.40
2019-04-03T16:45:42.829Z,20.40
2019-04-03T16:48:09.868Z,22.77
2019-04-03T16:50:36.915Z,19.87
2019-04-03T16:53:05.652Z,18.53
2019-04-03T16:55:33.353Z,22.60
2019-04-03T16:58:00.665Z,21.23
2019-04-03T17:00:27.710Z,22.73
2019-04-03T17:02:56.019Z,22.10
2019-04-03T17:05:23.417Z,23.90
2019-04-03T17:07:53.163Z,23.97
2019-04-03T17:10:19.093Z,21.60
2019-04-03T17:12:47.894Z,21.53
2019-04-03T17:15:16.631Z,21.03
2019-04-03T17:17:46.191Z,25.67
2019-04-03T17:20:13.020Z,23.87
2019-04-03T17:22:41.729Z,20.87
2019-04-03T17:25:09.129Z,24.50
2019-04-03T17:27:36.053Z,22.90
2019-04-03T17:30:04.396Z,23.47
2019-04-03T17:32:31.719Z,26.33
2019-04-03T17:34:58.937Z,23.50
2019-04-03T17:37:29.392Z,26.17
2019-04-03T17:39:54.690Z,22.93
2019-04-03T17:42:21.518Z,25.07
2019-04-03T17:44:48.347Z,32.13
2019-04-03T17:47:15.374Z,22.07
2019-04-03T17:49:42.180Z,22.87
2019-04-03T17:52:09.107Z,23.10
2019-04-03T17:54:38.282Z,21.40
2019-04-03T17:57:24.282Z,25.67
2019-04-03T17:59:51.170Z,21.87
2019-04-03T18:02:18.170Z,25.47
2019-04-03T18:04:45.117Z,25.57
2019-04-03T18:07:12.280Z,27.70
2019-04-03T18:09:41.793Z,25.10
2019-04-03T18:12:08.271Z,27.03
2019-04-03T18:14:35.185Z,25.30
2019-04-03T18:17:02.094Z,24.33
2019-04-03T18:19:37.274Z,26.37
2019-04-03T18:21:57.693Z,24.03
2019-04-03T18:24:24.489Z,25.60
2019-04-03T18:26:51.347Z,23.00
2019-04-03T18:29:18.275Z,23.73
2019-04-03T18:31:45.223Z,22.87
2019-04-03T18:34:12.186Z,24.83
2019-04-03T18:36:38.966Z,20.90
2019-04-03T18:39:09.726Z,20.07
2019-04-03T18:41:37.048Z,22.90
2019-04-03T18:44:04.149Z,23.23
2019-04-03T18:47:16.205Z,24.70
2019-04-03T18:49:01.648Z,24.77
2019-04-03T18:51:28.477Z,27.63
2019-04-03T18:53:55.265Z,22.90
2019-04-03T18:56:22.138Z,27.20
2019-04-03T18:58:48.916Z,27.47
2019-04-03T19:01:17.199Z,21.63
2019-04-03T19:03:44.406Z,28.90
2019-04-03T19:06:13.426Z,23.40
2019-04-03T19:08:40.029Z,23.03
2019-04-03T19:11:09.381Z,23.27
2019-04-03T19:13:35.596Z,23.27
2019-04-03T19:16:02.523Z,22.43
2019-04-03T19:18:31.854Z,24.23
2019-04-03T19:20:58.250Z,22.13
2019-04-03T19:23:25.038Z,21.60
2019-04-03T19:25:52.320Z,27.80
2019-04-03T19:28:19.153Z,24.53
2019-04-03T19:30:46.073Z,25.43
2019-04-03T19:33:14.047Z,22.37
2019-04-03T19:35:41.519Z,21.97
2019-04-03T19:38:08.513Z,23.43
2019-04-03T19:40:35.554Z,24.43
2019-04-03T19:43:02.463Z,29.10
2019-04-03T19:45:29.460Z,24.20
2019-04-03T19:47:56.309Z,24.87
2019-04-03T19:50:23.293Z,24.50
2019-04-03T19:52:50.125Z,25.60
2019-04-03T19:55:19.254Z,22.30
2019-04-03T19:57:45.830Z,27.53
2019-04-03T20:00:12.830Z,28.00
2019-04-03T20:02:42.756Z,26.73
2019-04-03T20:05:08.849Z,24.13
2019-04-03T20:07:35.654Z,26.30
2019-04-03T20:10:03.778Z,22.60
2019-04-03T20:12:30.684Z,24.47
2019-04-03T20:14:58.621Z,21.80
2019-04-03T20:17:26.219Z,22.93
2019-04-03T20:19:53.245Z,24.53
2019-04-03T20:22:20.137Z,25.17
2019-04-03T20:24:59.176Z,25.90
2019-04-03T20:27:16.708Z,25.63
2019-04-03T20:29:44.101Z,25.07
2019-04-03T20:32:11.039Z,24.83
2019-04-03T20:34:37.840Z,24.27
2019-04-03T20:37:04.734Z,22.30
2019-04-03T20:39:33.827Z,20.67
2019-04-03T20:42:03.182Z,24.93
2019-04-03T20:44:29.139Z,25.40
2019-04-03T20:46:56.549Z,23.20
2019-04-03T20:49:23.481Z,23.37
2019-04-03T20:51:50.374Z,23.83
2019-04-03T20:54:19.243Z,25.27
2019-04-03T20:56:57.082Z,25.80
2019-04-03T20:59:14.714Z,23.77
2019-04-03T21:01:41.553Z,26.33
2019-04-03T21:04:08.344Z,27.23
2019-04-03T21:06:37.294Z,21.63
2019-04-03T21:09:05.880Z,26.13
2019-04-03T21:11:34.462Z,24.33
2019-04-03T21:14:01.578Z,24.23
2019-04-03T21:16:33.395Z,28.27
2019-04-03T21:18:57.114Z,28.23
2019-04-03T21:21:25.466Z,25.07
2019-04-03T21:23:52.757Z,31.73
2019-04-03T21:26:19.563Z,29.87
2019-04-03T21:28:46.465Z,26.97
2019-04-03T21:31:13.299Z,26.90
2019-04-03T21:33:40.227Z,27.43
2019-04-03T21:36:07.665Z,22.50
2019-04-03T21:38:34.796Z,26.07
2019-04-03T21:41:02.151Z,24.13
2019-04-03T21:43:29.228Z,25.33
2019-04-03T21:45:56.698Z,26.83
2019-04-03T21:48:23.521Z,27.93
2019-04-03T21:50:50.513Z,23.77
2019-04-03T21:53:17.562Z,22.27
2019-04-03T21:55:44.364Z,27.53
2019-04-03T21:58:11.270Z,23.90
2019-04-03T22:01:18.547Z,26.37
2019-04-03T22:03:46.121Z,23.97
2019-04-03T22:06:13.134Z,22.43
2019-04-03T22:08:40.067Z,28.97
2019-04-03T22:11:07.082Z,23.60
2019-04-03T22:13:33.869Z,25.73
2019-04-03T22:16:00.719Z,28.90
2019-04-03T22:18:27.551Z,25.27
2019-04-03T22:20:54.464Z,25.07
2019-04-03T22:23:21.295Z,26.27
2019-04-03T22:25:48.190Z,28.23
2019-04-03T22:28:14.995Z,25.57
2019-04-03T22:30:41.823Z,22.33
2019-04-03T22:33:08.622Z,27.50
2019-04-03T22:35:35.517Z,19.53
2019-04-03T22:38:05.333Z,28.63
2019-04-03T22:40:31.159Z,22.37
2019-04-03T22:42:58.053Z,24.50
2019-04-03T22:45:24.947Z,29.87
2019-04-03T22:47:52.047Z,22.70
2019-04-03T22:50:18.837Z,24.77
2019-04-03T22:52:45.681Z,23.03
2019-04-03T22:55:13.001Z,27.17
2019-04-03T22:57:41.201Z,26.27
2019-04-03T23:00:08.564Z,22.27
2019-04-03T23:02:35.557Z,27.60
2019-04-03T23:05:02.567Z,24.80
2019-04-03T23:07:29.512Z,21.20
2019-04-03T23:09:57.168Z,20.97
2019-04-03T23:12:24.329Z,27.77
2019-04-03T23:14:51.284Z,22.60
2019-04-03T23:17:18.238Z,22.00
2019-04-03T23:19:45.025Z,25.20
2019-04-03T23:22:11.861Z,19.07
2019-04-03T23:24:38.672Z,22.43
2019-04-03T23:27:05.548Z,21.33
2019-04-03T23:29:32.390Z,23.73
2019-04-03T23:31:59.189Z,18.23
2019-04-03T23:34:26.069Z,20.37
2019-04-03T23:36:54.293Z,19.73
2019-04-03T23:39:21.856Z,27.37
2019-04-03T23:41:48.862Z,20.67
2019-04-03T23:44:15.701Z,22.47
2019-04-03T23:46:45.383Z,19.87
2019-04-03T23:49:11.512Z,21.70
2019-04-03T23:51:38.346Z,22.10
2019-04-03T23:54:05.141Z,21.27
2019-04-03T23:56:31.945Z,23.60
2019-04-03T23:58:58.887Z,19.40
